createdAt,value
2022-09-28T00:00:10.007Z,971.45
2022-09-28T00:01:09.925Z,971.44
2022-09-28T00:02:09.986Z,971.40
2022-09-28T00:03:09.830Z,971.39
2022-09-28T00:04:09.685Z,971.40
2022-09-28T00:05:09.601Z,971.33
2022-09-28T00:06:09.518Z,971.35
2022-09-28T00:07:09.439Z,971.34
2022-09-28T00:08:09.356Z,971.35
2022-09-28T00:09:09.515Z,971.26
2022-09-28T00:10:09.195Z,971.32
2022-09-28T00:11:09.134Z,971.28
2022-09-28T00:12:09.031Z,971.27
2022-09-28T00:13:08.953Z,971.26
2022-09-28T00:14:08.870Z,971.23
2022-09-28T00:15:08.790Z,971.24
2022-09-28T00:16:08.783Z,971.25
2022-09-28T00:17:08.629Z,971.22
2022-09-28T00:18:08.544Z,971.21
2022-09-28T00:19:08.465Z,971.20
2022-09-28T00:20:08.383Z,971.23
2022-09-28T00:21:08.302Z,971.24
2022-09-28T00:22:08.222Z,971.18
2022-09-28T00:23:08.142Z,971.12
2022-09-28T00:24:08.062Z,971.07
2022-09-28T00:25:07.980Z,971.01
2022-09-28T00:26:07.908Z,971.03
2022-09-28T00:27:07.837Z,970.97
2022-09-28T00:28:07.738Z,970.96
2022-09-28T00:29:07.656Z,970.96
2022-09-28T00:30:07.574Z,970.88
2022-09-28T00:31:07.530Z,970.85
2022-09-28T00:32:07.415Z,970.84
2022-09-28T00:33:07.335Z,970.78
2022-09-28T00:34:07.256Z,970.77
2022-09-28T00:35:07.170Z,970.78
2022-09-28T00:36:07.091Z,970.77
2022-09-28T00:37:07.010Z,970.78
2022-09-28T00:38:06.929Z,970.73
2022-09-28T00:39:06.848Z,970.73
2022-09-28T00:40:06.766Z,970.67
2022-09-28T00:41:06.686Z,970.71
2022-09-28T00:42:06.604Z,970.67
2022-09-28T00:43:06.542Z,970.65
2022-09-28T00:44:06.441Z,970.65
2022-09-28T00:45:06.360Z,970.70
2022-09-28T00:46:06.396Z,970.67
2022-09-28T00:47:06.197Z,970.67
2022-09-28T00:48:06.117Z,970.57
2022-09-28T00:49:06.035Z,970.64
2022-09-28T00:50:05.958Z,970.60
2022-09-28T00:51:05.880Z,970.59
2022-09-28T00:52:05.794Z,970.56
2022-09-28T00:53:05.714Z,970.54
2022-09-28T00:54:05.632Z,970.57
2022-09-28T00:55:05.550Z,970.51
2022-09-28T00:56:05.471Z,970.49
2022-09-28T00:57:05.387Z,970.52
2022-09-28T00:58:05.366Z,970.58
2022-09-28T00:59:05.248Z,970.55
2022-09-28T01:00:05.144Z,970.51
2022-09-28T01:01:05.115Z,970.48
2022-09-28T01:02:05.049Z,970.48
2022-09-28T01:03:04.904Z,970.46
2022-09-28T01:04:04.842Z,970.50
2022-09-28T01:05:04.745Z,970.46
2022-09-28T01:06:04.661Z,970.43
2022-09-28T01:07:04.586Z,970.41
2022-09-28T01:08:04.497Z,970.40
2022-09-28T01:09:04.420Z,970.35
2022-09-28T01:10:04.334Z,970.32
2022-09-28T01:11:04.257Z,970.37
2022-09-28T01:12:04.175Z,970.30
2022-09-28T01:13:04.093Z,970.28
2022-09-28T01:14:04.017Z,970.25
2022-09-28T01:15:04.002Z,970.24
2022-09-28T01:16:03.941Z,970.18
2022-09-28T01:17:03.770Z,970.19
2022-09-28T01:18:03.688Z,970.15
2022-09-28T01:19:03.612Z,970.17
2022-09-28T01:20:03.530Z,970.17
2022-09-28T01:21:03.453Z,970.19
2022-09-28T01:22:03.364Z,970.19
2022-09-28T01:23:03.285Z,970.15
2022-09-28T01:24:03.204Z,970.18
2022-09-28T01:25:03.324Z,970.10
2022-09-28T01:26:03.048Z,970.11
2022-09-28T01:27:02.961Z,970.11
2022-09-28T01:28:02.881Z,970.08
2022-09-28T01:29:02.797Z,970.10
2022-09-28T01:30:02.718Z,970.08
2022-09-28T01:31:02.660Z,969.97
2022-09-28T01:32:02.605Z,969.99
2022-09-28T01:33:02.477Z,969.91
2022-09-28T01:34:02.394Z,969.95
2022-09-28T01:35:02.312Z,969.92
2022-09-28T01:36:02.235Z,969.90
2022-09-28T01:37:02.151Z,969.84
2022-09-28T01:38:02.069Z,969.80
2022-09-28T01:39:01.990Z,969.75
2022-09-28T01:40:01.909Z,969.68
2022-09-28T01:41:01.833Z,969.66
2022-09-28T01:42:01.746Z,969.64
2022-09-28T01:43:01.665Z,969.67
2022-09-28T01:44:01.583Z,969.68
2022-09-28T01:45:01.502Z,969.71
2022-09-28T01:46:01.458Z,969.69
2022-09-28T01:47:01.362Z,969.64
2022-09-28T01:48:01.267Z,969.62
2022-09-28T01:49:01.180Z,969.67
2022-09-28T01:50:01.099Z,969.65
2022-09-28T01:51:01.018Z,969.64
2022-09-28T01:52:00.937Z,969.62
2022-09-28T01:53:00.855Z,969.57
2022-09-28T01:54:00.773Z,969.67
2022-09-28T01:55:00.692Z,969.53
2022-09-28T01:56:00.711Z,969.55
2022-09-28T01:57:00.528Z,969.57
2022-09-28T01:58:00.448Z,969.52
2022-09-28T01:59:00.369Z,969.50
2022-09-28T02:00:00.342Z,969.45
2022-09-28T02:01:00.295Z,969.47
2022-09-28T02:02:00.217Z,969.54
2022-09-28T02:03:00.069Z,969.50
2022-09-28T02:03:59.963Z,969.50
2022-09-28T02:04:59.881Z,969.46
2022-09-28T02:05:59.800Z,969.47
2022-09-28T02:06:59.719Z,969.40
2022-09-28T02:07:59.638Z,969.44
2022-09-28T02:08:59.559Z,969.44
2022-09-28T02:09:59.476Z,969.49
2022-09-28T02:10:59.439Z,969.41
2022-09-28T02:11:59.313Z,969.48
2022-09-28T02:12:59.230Z,969.39
2022-09-28T02:13:59.151Z,969.41
2022-09-28T02:14:59.070Z,969.42
2022-09-28T02:15:59.008Z,969.40
2022-09-28T02:16:58.910Z,969.42
2022-09-28T02:17:58.895Z,969.38
2022-09-28T02:18:58.770Z,969.47
2022-09-28T02:19:58.663Z,969.43
2022-09-28T02:20:58.581Z,969.46
2022-09-28T02:21:58.501Z,969.44
2022-09-28T02:22:58.427Z,969.35
2022-09-28T02:23:58.342Z,969.34
2022-09-28T02:24:58.259Z,969.34
2022-09-28T02:25:58.181Z,969.40
2022-09-28T02:26:58.097Z,969.35
2022-09-28T02:27:58.018Z,969.39
2022-09-28T02:28:57.933Z,969.45
2022-09-28T02:29:57.853Z,969.49
2022-09-28T02:30:57.773Z,969.48
2022-09-28T02:31:57.798Z,969.43
2022-09-28T02:32:57.613Z,969.38
2022-09-28T02:33:57.530Z,969.36
2022-09-28T02:34:57.464Z,969.34
2022-09-28T02:35:57.370Z,969.31
2022-09-28T02:36:57.285Z,969.32
2022-09-28T02:37:57.207Z,969.29
2022-09-28T02:38:57.125Z,969.29
2022-09-28T02:39:57.045Z,969.24
2022-09-28T02:40:57.019Z,969.23
2022-09-28T02:41:56.882Z,969.23
2022-09-28T02:42:56.802Z,969.23
2022-09-28T02:43:56.722Z,969.22
2022-09-28T02:44:56.642Z,969.21
2022-09-28T02:45:56.633Z,969.20
2022-09-28T02:46:56.476Z,969.20
2022-09-28T02:47:56.399Z,969.16
2022-09-28T02:49:17.353Z,969.18
2022-09-28T02:49:56.236Z,969.16
2022-09-28T02:50:56.173Z,969.24
2022-09-28T02:51:56.073Z,969.12
2022-09-28T02:52:55.990Z,969.11
2022-09-28T02:53:55.912Z,969.05
2022-09-28T02:54:55.829Z,969.11
2022-09-28T02:55:55.749Z,969.13
2022-09-28T02:56:55.666Z,969.14
2022-09-28T02:57:55.586Z,969.14
2022-09-28T02:58:55.506Z,969.10
2022-09-28T02:59:55.431Z,969.12
2022-09-28T03:00:55.387Z,969.10
2022-09-28T03:01:55.296Z,969.08
2022-09-28T03:02:55.181Z,969.09
2022-09-28T03:03:55.102Z,969.05
2022-09-28T03:04:55.020Z,969.09
2022-09-28T03:05:54.939Z,969.08
2022-09-28T03:06:54.879Z,969.04
2022-09-28T03:07:54.777Z,969.07
2022-09-28T03:08:54.697Z,969.06
2022-09-28T03:09:54.618Z,969.07
2022-09-28T03:10:54.535Z,969.07
2022-09-28T03:11:54.457Z,969.08
2022-09-28T03:12:54.374Z,969.08
2022-09-28T03:13:54.296Z,969.05
2022-09-28T03:14:54.213Z,969.10
2022-09-28T03:15:54.177Z,969.11
2022-09-28T03:16:54.050Z,969.06
2022-09-28T03:17:53.969Z,969.07
2022-09-28T03:18:53.889Z,969.10
2022-09-28T03:19:53.811Z,969.04
2022-09-28T03:20:53.728Z,969.10
2022-09-28T03:21:53.645Z,969.14
2022-09-28T03:23:12.735Z,969.09
2022-09-28T03:23:53.643Z,969.06
2022-09-28T03:24:53.407Z,969.03
2022-09-28T03:25:53.337Z,969.04
2022-09-28T03:26:53.243Z,969.01
2022-09-28T03:27:53.413Z,968.97
2022-09-28T03:28:53.232Z,969.05
2022-09-28T03:29:53.001Z,968.97
2022-09-28T03:30:52.920Z,969.01
2022-09-28T03:31:52.942Z,968.96
2022-09-28T03:32:52.756Z,969.01
2022-09-28T03:33:52.677Z,968.92
2022-09-28T03:34:52.595Z,968.97
2022-09-28T03:35:52.513Z,968.99
2022-09-28T03:36:52.434Z,968.98
2022-09-28T03:37:52.352Z,969.02
2022-09-28T03:38:52.288Z,969.06
2022-09-28T03:39:52.205Z,969.05
2022-09-28T03:40:52.201Z,969.05
2022-09-28T03:41:52.030Z,969.07
2022-09-28T03:42:51.951Z,969.03
2022-09-28T03:43:51.869Z,969.03
2022-09-28T03:44:51.786Z,969.04
2022-09-28T03:45:52.035Z,968.98
2022-09-28T03:46:51.624Z,969.01
2022-09-28T03:47:51.544Z,969.02
2022-09-28T03:48:51.460Z,969.01
2022-09-28T03:49:51.380Z,969.04
2022-09-28T03:50:51.298Z,969.02
2022-09-28T03:51:51.220Z,969.01
2022-09-28T03:52:51.138Z,968.96
2022-09-28T03:53:51.057Z,969.00
2022-09-28T03:54:50.995Z,968.98
2022-09-28T03:55:50.899Z,968.96
2022-09-28T03:56:50.812Z,968.97
2022-09-28T03:57:50.735Z,968.94
2022-09-28T03:58:50.652Z,968.94
2022-09-28T03:59:50.571Z,968.93
2022-09-28T04:00:50.496Z,968.93
2022-09-28T04:01:50.452Z,968.96
2022-09-28T04:02:50.327Z,968.91
2022-09-28T04:03:50.247Z,968.92
2022-09-28T04:04:50.166Z,968.97
2022-09-28T04:05:50.085Z,968.92
2022-09-28T04:06:50.004Z,968.93
2022-09-28T04:07:49.922Z,968.96
2022-09-28T04:08:49.841Z,968.95
2022-09-28T04:09:49.761Z,968.95
2022-09-28T04:10:49.701Z,968.96
2022-09-28T04:12:03.370Z,968.94
2022-09-28T04:12:49.516Z,969.03
2022-09-28T04:13:49.436Z,969.06
2022-09-28T04:14:49.355Z,969.00
2022-09-28T04:15:49.275Z,969.00
2022-09-28T04:16:49.300Z,969.05
2022-09-28T04:17:49.110Z,969.05
2022-09-28T04:18:49.028Z,969.02
2022-09-28T04:19:48.950Z,969.05
2022-09-28T04:20:48.868Z,969.03
2022-09-28T04:21:48.787Z,969.08
2022-09-28T04:22:48.705Z,969.06
2022-09-28T04:23:48.626Z,969.03
2022-09-28T04:24:48.550Z,969.05
2022-09-28T04:25:48.464Z,969.09
2022-09-28T04:26:48.399Z,969.08
2022-09-28T04:27:48.300Z,969.10
2022-09-28T04:28:48.217Z,969.16
2022-09-28T04:29:48.187Z,969.08
2022-09-28T04:30:48.056Z,969.08
2022-09-28T04:31:47.993Z,969.08
2022-09-28T04:32:47.895Z,969.10
2022-09-28T04:33:47.813Z,969.12
2022-09-28T04:34:47.731Z,969.13
2022-09-28T04:35:47.651Z,969.14
2022-09-28T04:36:47.568Z,969.12
2022-09-28T04:37:47.489Z,969.15
2022-09-28T04:38:54.495Z,969.12
2022-09-28T04:39:48.558Z,969.11
2022-09-28T04:40:47.319Z,969.14
2022-09-28T04:41:47.168Z,969.13
2022-09-28T04:42:47.102Z,969.16
2022-09-28T04:43:47.001Z,969.19
2022-09-28T04:44:46.970Z,969.22
2022-09-28T04:45:46.910Z,969.20
2022-09-28T04:46:46.759Z,969.18
2022-09-28T04:47:46.676Z,969.21
2022-09-28T04:48:46.594Z,969.22
2022-09-28T04:49:46.514Z,969.22
2022-09-28T04:50:46.431Z,969.22
2022-09-28T04:51:46.354Z,969.19
2022-09-28T04:52:46.268Z,969.15
2022-09-28T04:53:46.192Z,969.17
2022-09-28T04:54:46.108Z,969.20
2022-09-28T04:55:46.080Z,969.21
2022-09-28T04:56:45.951Z,969.20
2022-09-28T04:57:46.018Z,969.22
2022-09-28T04:58:49.110Z,969.25
2022-09-28T04:59:45.711Z,969.24
2022-09-28T05:00:45.639Z,969.33
2022-09-28T05:01:45.541Z,969.29
2022-09-28T05:02:45.582Z,969.34
2022-09-28T05:03:45.379Z,969.30
2022-09-28T05:04:45.297Z,969.31
2022-09-28T05:05:45.217Z,969.29
2022-09-28T05:06:45.137Z,969.28
2022-09-28T05:07:45.056Z,969.29
2022-09-28T05:08:44.975Z,969.26
2022-09-28T05:09:44.893Z,969.25
2022-09-28T05:10:44.814Z,969.27
2022-09-28T05:11:44.735Z,969.30
2022-09-28T05:12:44.653Z,969.32
2022-09-28T05:13:44.618Z,969.31
2022-09-28T05:14:44.507Z,969.31
2022-09-28T05:15:44.411Z,969.35
2022-09-28T05:16:44.396Z,969.32
2022-09-28T05:17:44.247Z,969.38
2022-09-28T05:18:44.167Z,969.39
2022-09-28T05:19:44.085Z,969.37
2022-09-28T05:20:44.002Z,969.41
2022-09-28T05:21:43.922Z,969.42
2022-09-28T05:22:43.839Z,969.44
2022-09-28T05:23:43.760Z,969.46
2022-09-28T05:24:43.677Z,969.43
2022-09-28T05:25:43.598Z,969.42
2022-09-28T05:26:43.517Z,969.51
2022-09-28T05:27:43.435Z,969.46
2022-09-28T05:28:43.352Z,969.49
2022-09-28T05:29:43.275Z,969.53
2022-09-28T05:30:43.211Z,969.52
2022-09-28T05:31:43.208Z,969.51
2022-09-28T05:32:43.028Z,969.52
2022-09-28T05:33:42.949Z,969.52
2022-09-28T05:34:42.866Z,969.54
2022-09-28T05:35:42.788Z,969.55
2022-09-28T05:36:42.704Z,969.61
2022-09-28T05:37:42.626Z,969.61
2022-09-28T05:38:42.543Z,969.60
2022-09-28T05:39:42.465Z,969.64
2022-09-28T05:40:42.405Z,969.67
2022-09-28T05:41:42.300Z,969.63
2022-09-28T05:42:42.214Z,969.68
2022-09-28T05:43:42.135Z,969.68
2022-09-28T05:44:42.053Z,969.71
2022-09-28T05:45:42.019Z,969.69
2022-09-28T05:46:41.909Z,969.72
2022-09-28T05:47:41.810Z,969.71
2022-09-28T05:48:41.727Z,969.67
2022-09-28T05:49:41.799Z,969.71
2022-09-28T05:50:41.570Z,969.72
2022-09-28T05:51:41.484Z,969.74
2022-09-28T05:52:41.401Z,969.78
2022-09-28T05:53:41.324Z,969.77
2022-09-28T05:54:41.270Z,969.74
2022-09-28T05:55:41.159Z,969.82
2022-09-28T05:56:41.076Z,969.82
2022-09-28T05:57:40.997Z,969.80
2022-09-28T05:58:40.913Z,969.84
2022-09-28T05:59:40.834Z,969.86
2022-09-28T06:00:40.751Z,969.89
2022-09-28T06:01:40.703Z,969.87
2022-09-28T06:02:40.707Z,969.87
2022-09-28T06:03:40.509Z,969.89
2022-09-28T06:04:40.451Z,969.91
2022-09-28T06:05:40.342Z,969.92
2022-09-28T06:06:40.263Z,969.92
2022-09-28T06:07:40.182Z,969.93
2022-09-28T06:08:40.097Z,969.94
2022-09-28T06:09:40.021Z,969.95
2022-09-28T06:10:39.938Z,969.99
2022-09-28T06:11:39.856Z,969.99
2022-09-28T06:12:39.775Z,969.95
2022-09-28T06:13:39.696Z,969.94
2022-09-28T06:14:39.610Z,969.99
2022-09-28T06:15:39.528Z,970.00
2022-09-28T06:16:43.687Z,969.97
2022-09-28T06:17:39.366Z,969.97
2022-09-28T06:18:39.304Z,969.98
2022-09-28T06:19:39.205Z,970.00
2022-09-28T06:20:39.123Z,970.06
2022-09-28T06:21:39.041Z,970.03
2022-09-28T06:22:38.961Z,969.99
2022-09-28T06:23:40.484Z,970.02
2022-09-28T06:24:38.799Z,970.02
2022-09-28T06:25:38.722Z,970.04
2022-09-28T06:26:38.636Z,970.04
2022-09-28T06:27:38.554Z,970.03
2022-09-28T06:28:38.475Z,970.07
2022-09-28T06:29:38.392Z,970.07
2022-09-28T06:30:38.434Z,970.11
2022-09-28T06:31:38.229Z,970.16
2022-09-28T06:32:38.150Z,970.18
2022-09-28T06:33:38.067Z,970.16
2022-09-28T06:34:38.005Z,970.20
2022-09-28T06:35:37.923Z,970.24
2022-09-28T06:36:37.823Z,970.26
2022-09-28T06:37:37.745Z,970.29
2022-09-28T06:38:37.664Z,970.34
2022-09-28T06:39:37.601Z,970.37
2022-09-28T06:40:37.562Z,970.36
2022-09-28T06:41:37.417Z,970.38
2022-09-28T06:42:37.341Z,970.34
2022-09-28T06:43:37.257Z,970.33
2022-09-28T06:44:37.176Z,970.36
2022-09-28T06:45:37.094Z,970.35
2022-09-28T06:46:37.097Z,970.32
2022-09-28T06:47:36.933Z,970.34
2022-09-28T06:48:36.852Z,970.36
2022-09-28T06:49:36.770Z,970.35
2022-09-28T06:50:36.710Z,970.33
2022-09-28T06:51:36.611Z,970.36
2022-09-28T06:52:36.529Z,970.38
2022-09-28T06:53:36.451Z,970.43
2022-09-28T06:54:36.368Z,970.40
2022-09-28T06:55:36.290Z,970.41
2022-09-28T06:56:36.206Z,970.41
2022-09-28T06:57:36.143Z,970.45
2022-09-28T06:58:36.054Z,970.49
2022-09-28T06:59:35.962Z,970.43
2022-09-28T07:00:35.892Z,970.48
2022-09-28T07:01:35.872Z,970.49
2022-09-28T07:02:35.808Z,970.53
2022-09-28T07:03:35.639Z,970.52
2022-09-28T07:04:35.557Z,970.54
2022-09-28T07:05:35.491Z,970.59
2022-09-28T07:06:35.416Z,970.52
2022-09-28T07:07:35.318Z,970.59
2022-09-28T07:08:35.242Z,970.61
2022-09-28T07:09:40.300Z,970.62
2022-09-28T07:10:35.073Z,970.60
2022-09-28T07:11:34.992Z,970.63
2022-09-28T07:12:34.909Z,970.66
2022-09-28T07:13:49.601Z,970.65
2022-09-28T07:14:47.427Z,970.68
2022-09-28T07:15:34.668Z,970.68
2022-09-28T07:16:56.784Z,970.69
2022-09-28T07:17:41.640Z,970.71
2022-09-28T07:18:34.425Z,970.76
2022-09-28T07:19:34.346Z,970.73
2022-09-28T07:20:46.857Z,970.79
2022-09-28T07:21:34.181Z,970.79
2022-09-28T07:22:42.394Z,970.80
2022-09-28T07:23:43.828Z,970.79
2022-09-28T07:24:33.943Z,970.82
2022-09-28T07:25:33.860Z,970.80
2022-09-28T07:26:33.781Z,970.84
2022-09-28T07:27:33.697Z,970.87
2022-09-28T07:28:33.616Z,970.86
2022-09-28T07:29:33.535Z,970.88
2022-09-28T07:30:33.538Z,970.88
2022-09-28T07:31:33.375Z,970.90
2022-09-28T07:32:33.299Z,970.89
2022-09-28T07:33:33.218Z,970.91
2022-09-28T07:34:33.136Z,970.99
2022-09-28T07:35:33.054Z,970.99
2022-09-28T07:36:32.973Z,970.99
2022-09-28T07:37:32.896Z,970.96
2022-09-28T07:38:32.833Z,970.97
2022-09-28T07:39:32.733Z,970.98
2022-09-28T07:40:32.743Z,971.02
2022-09-28T07:41:32.659Z,971.03
2022-09-28T07:42:32.492Z,971.01
2022-09-28T07:43:32.413Z,971.02
2022-09-28T07:44:32.331Z,971.04
2022-09-28T07:45:32.290Z,971.07
2022-09-28T07:46:32.171Z,971.12
2022-09-28T07:47:35.045Z,971.15
2022-09-28T07:48:32.011Z,971.16
2022-09-28T07:49:31.931Z,971.17
2022-09-28T07:50:31.851Z,971.20
2022-09-28T07:51:31.771Z,971.18
2022-09-28T07:52:31.689Z,971.25
2022-09-28T07:53:31.609Z,971.26
2022-09-28T07:54:31.549Z,971.28
2022-09-28T07:55:31.450Z,971.26
2022-09-28T07:56:31.471Z,971.30
2022-09-28T07:57:31.338Z,971.33
2022-09-28T07:58:31.213Z,971.30
2022-09-28T07:59:31.129Z,971.33
2022-09-28T08:00:34.118Z,971.33
2022-09-28T08:01:31.095Z,971.39
2022-09-28T08:02:30.945Z,971.37
2022-09-28T08:03:30.820Z,971.41
2022-09-28T08:04:30.789Z,971.41
2022-09-28T08:05:30.648Z,971.43
2022-09-28T08:06:30.573Z,971.45
2022-09-28T08:07:30.490Z,971.46
2022-09-28T08:08:30.413Z,971.44
2022-09-28T08:09:30.333Z,971.47
2022-09-28T08:10:30.290Z,971.48
2022-09-28T08:11:30.169Z,971.50
2022-09-28T08:12:30.090Z,971.52
2022-09-28T08:13:30.015Z,971.47
2022-09-28T08:14:29.931Z,971.46
2022-09-28T08:15:29.854Z,971.50
2022-09-28T08:16:29.896Z,971.48
2022-09-28T08:17:29.841Z,971.52
2022-09-28T08:18:29.639Z,971.52
2022-09-28T08:19:29.531Z,971.53
2022-09-28T08:20:29.455Z,971.56
2022-09-28T08:21:29.377Z,971.51
2022-09-28T08:22:29.314Z,971.54
2022-09-28T08:23:29.213Z,971.56
2022-09-28T08:24:29.433Z,971.53
2022-09-28T08:25:29.054Z,971.54
2022-09-28T08:26:29.002Z,971.53
2022-09-28T08:27:28.891Z,971.53
2022-09-28T08:28:28.813Z,971.54
2022-09-28T08:29:28.734Z,971.51
2022-09-28T08:30:28.695Z,971.51
2022-09-28T08:31:28.572Z,971.54
2022-09-28T08:32:28.493Z,971.53
2022-09-28T08:33:28.410Z,971.55
2022-09-28T08:34:28.334Z,971.57
2022-09-28T08:35:28.252Z,971.53
2022-09-28T08:36:28.172Z,971.57
2022-09-28T08:37:28.091Z,971.60
2022-09-28T08:38:28.015Z,971.61
2022-09-28T08:39:27.935Z,971.58
2022-09-28T08:40:27.966Z,971.63
2022-09-28T08:41:27.772Z,971.64
2022-09-28T08:42:27.715Z,971.62
2022-09-28T08:43:27.615Z,971.69
2022-09-28T08:44:27.534Z,971.71
2022-09-28T08:45:27.461Z,971.70
2022-09-28T08:46:27.478Z,971.71
2022-09-28T08:47:27.297Z,971.70
2022-09-28T08:48:27.217Z,971.66
2022-09-28T08:49:27.275Z,971.70
2022-09-28T08:50:27.061Z,971.71
2022-09-28T08:51:27.076Z,971.74
2022-09-28T08:52:26.895Z,971.73
2022-09-28T08:53:26.865Z,971.75
2022-09-28T08:54:26.740Z,971.71
2022-09-28T08:55:26.658Z,971.72
2022-09-28T08:56:26.577Z,971.71
2022-09-28T08:57:26.497Z,971.71
2022-09-28T08:58:26.440Z,971.75
2022-09-28T08:59:26.342Z,971.77
2022-09-28T09:00:26.261Z,971.79
2022-09-28T09:01:26.298Z,971.79
2022-09-28T09:02:26.124Z,971.80
2022-09-28T09:03:26.023Z,971.81
2022-09-28T09:04:25.942Z,971.82
2022-09-28T09:05:26.011Z,971.86
2022-09-28T09:06:25.783Z,971.88
2022-09-28T09:07:25.705Z,971.89
2022-09-28T09:08:25.624Z,971.89
2022-09-28T09:09:25.545Z,971.90
2022-09-28T09:10:25.467Z,971.90
2022-09-28T09:11:25.385Z,971.92
2022-09-28T09:12:25.306Z,971.91
2022-09-28T09:13:25.229Z,971.90
2022-09-28T09:14:25.249Z,971.92
2022-09-28T09:15:25.071Z,971.89
2022-09-28T09:16:25.044Z,971.90
2022-09-28T09:17:24.912Z,971.93
2022-09-28T09:18:24.834Z,971.93
2022-09-28T09:19:24.754Z,971.99
2022-09-28T09:20:24.674Z,971.96
2022-09-28T09:21:24.594Z,971.96
2022-09-28T09:22:24.517Z,971.99
2022-09-28T09:23:24.438Z,971.96
2022-09-28T09:24:24.359Z,971.98
2022-09-28T09:25:24.276Z,972.00
2022-09-28T09:26:26.149Z,971.98
2022-09-28T09:27:24.118Z,971.95
2022-09-28T09:28:24.042Z,971.94
2022-09-28T09:29:23.961Z,971.92
2022-09-28T09:30:24.050Z,971.89
2022-09-28T09:31:23.825Z,971.99
2022-09-28T09:32:23.724Z,972.00
2022-09-28T09:33:23.647Z,971.98
2022-09-28T09:34:23.565Z,972.00
2022-09-28T09:35:27.495Z,972.03
2022-09-28T09:36:23.409Z,972.01
2022-09-28T09:37:23.326Z,972.05
2022-09-28T09:38:23.250Z,971.99
2022-09-28T09:39:23.170Z,972.05
2022-09-28T09:40:23.166Z,972.06
2022-09-28T09:41:23.013Z,972.02
2022-09-28T09:42:22.933Z,972.01
2022-09-28T09:43:24.156Z,972.03
2022-09-28T09:44:22.777Z,972.07
2022-09-28T09:45:22.697Z,972.05
2022-09-28T09:46:22.687Z,972.05
2022-09-28T09:47:22.540Z,972.05
2022-09-28T09:48:22.463Z,972.06
2022-09-28T09:49:22.386Z,972.05
2022-09-28T09:50:22.306Z,972.06
2022-09-28T09:51:22.226Z,972.09
2022-09-28T09:52:22.324Z,972.09
2022-09-28T09:53:22.067Z,972.09
2022-09-28T09:55:19.481Z,972.07
2022-09-28T09:56:19.406Z,972.03
2022-09-28T09:57:19.336Z,972.07
2022-09-28T09:58:19.247Z,972.08
2022-09-28T09:59:19.342Z,972.05
2022-09-28T10:00:19.097Z,972.04
2022-09-28T10:01:19.096Z,972.10
2022-09-28T10:02:18.987Z,972.06
2022-09-28T10:03:18.855Z,972.09
2022-09-28T10:04:18.779Z,972.12
2022-09-28T10:05:18.700Z,972.08
2022-09-28T10:06:18.623Z,972.07
2022-09-28T10:07:18.544Z,972.05
2022-09-28T10:08:18.468Z,972.06
2022-09-28T10:09:18.551Z,972.05
2022-09-28T10:10:18.356Z,972.04
2022-09-28T10:11:18.233Z,971.99
2022-09-28T10:12:18.155Z,972.01
2022-09-28T10:13:18.074Z,972.03
2022-09-28T10:14:17.997Z,972.06
2022-09-28T10:15:17.920Z,972.06
2022-09-28T10:16:17.897Z,972.11
2022-09-28T10:17:17.762Z,972.08
2022-09-28T10:18:17.709Z,972.07
2022-09-28T10:19:17.705Z,972.10
2022-09-28T10:20:17.574Z,972.14
2022-09-28T10:21:17.449Z,972.12
2022-09-28T10:22:17.373Z,972.13
2022-09-28T10:23:17.293Z,972.12
2022-09-28T10:24:17.366Z,972.14
2022-09-28T10:25:17.136Z,972.14
2022-09-28T10:26:18.744Z,972.14
2022-09-28T10:27:16.991Z,972.13
2022-09-28T10:28:16.906Z,972.19
2022-09-28T10:29:16.828Z,972.16
2022-09-28T10:30:16.748Z,972.16
2022-09-28T10:31:16.670Z,972.18
2022-09-28T10:32:16.591Z,972.19
2022-09-28T10:33:16.512Z,972.26
2022-09-28T10:34:16.561Z,972.23
2022-09-28T10:35:16.355Z,972.28
2022-09-28T10:36:16.280Z,972.19
2022-09-28T10:37:16.198Z,972.21
2022-09-28T10:38:16.125Z,972.18
2022-09-28T10:39:16.044Z,972.20
2022-09-28T10:40:16.041Z,972.21
2022-09-28T10:41:15.886Z,972.21
2022-09-28T10:42:15.812Z,972.23
2022-09-28T10:43:15.730Z,972.23
2022-09-28T10:44:15.700Z,972.20
2022-09-28T10:45:15.572Z,972.22
2022-09-28T10:46:15.586Z,972.25
2022-09-28T10:47:15.416Z,972.28
2022-09-28T10:48:15.340Z,972.25
2022-09-28T10:49:15.259Z,972.27
2022-09-28T10:50:15.201Z,972.29
2022-09-28T10:51:15.104Z,972.29
2022-09-28T10:52:15.030Z,972.25
2022-09-28T10:53:14.948Z,972.27
2022-09-28T10:54:14.957Z,972.28
2022-09-28T10:55:14.791Z,972.25
2022-09-28T10:56:14.718Z,972.27
2022-09-28T10:57:14.637Z,972.26
2022-09-28T10:58:14.561Z,972.32
2022-09-28T10:59:14.482Z,972.36
2022-09-28T11:00:14.406Z,972.33
2022-09-28T11:01:14.372Z,972.29
2022-09-28T11:02:14.335Z,972.30
2022-09-28T11:07:23.007Z,972.33
2022-09-28T11:08:22.887Z,972.33
2022-09-28T11:13:31.604Z,972.31
2022-09-28T11:14:31.533Z,972.29
2022-09-28T11:15:31.447Z,972.27
2022-09-28T11:16:31.514Z,972.31
2022-09-28T11:17:31.294Z,972.29
2022-09-28T11:18:31.218Z,972.32
2022-09-28T11:19:31.141Z,972.26
2022-09-28T11:20:31.059Z,972.32
2022-09-28T11:21:30.982Z,972.30
2022-09-28T11:22:30.926Z,972.23
2022-09-28T11:23:30.825Z,972.27
2022-09-28T11:24:30.748Z,972.30
2022-09-28T11:25:30.670Z,972.31
2022-09-28T11:26:30.592Z,972.24
2022-09-28T11:27:30.513Z,972.24
2022-09-28T11:28:30.436Z,972.26
2022-09-28T11:29:30.361Z,972.25
2022-09-28T11:30:30.364Z,972.26
2022-09-28T11:31:30.201Z,972.24
2022-09-28T11:32:30.123Z,972.24
2022-09-28T11:33:30.045Z,972.24
2022-09-28T11:34:41.761Z,972.24
2022-09-28T11:35:29.887Z,972.24
2022-09-28T11:36:29.809Z,972.23
2022-09-28T11:38:32.243Z,972.24
2022-09-28T11:39:32.146Z,972.23
2022-09-28T11:40:32.092Z,972.23
2022-09-28T11:41:31.992Z,972.26
2022-09-28T11:42:31.912Z,972.29
2022-09-28T11:43:31.934Z,972.27
2022-09-28T11:44:33.247Z,972.28
2022-09-28T11:56:33.108Z,972.35
2022-09-28T11:57:33.009Z,972.34
2022-09-28T11:58:32.934Z,972.35
2022-09-28T11:59:32.857Z,972.35
2022-09-28T12:00:32.776Z,972.35
2022-09-28T12:01:32.697Z,972.37
2022-09-28T12:02:32.727Z,972.47
2022-09-28T12:03:32.775Z,972.56
2022-09-28T12:04:32.466Z,972.35
2022-09-28T12:05:32.389Z,972.46
2022-09-28T12:06:32.309Z,972.41
2022-09-28T12:07:32.579Z,972.49
2022-09-28T12:08:32.155Z,972.52
2022-09-28T12:09:32.081Z,972.49
2022-09-28T12:10:32.003Z,972.53
2022-09-28T12:11:31.927Z,972.74
2022-09-28T12:12:31.867Z,972.48
2022-09-28T12:13:32.786Z,972.49
2022-09-28T12:14:31.699Z,972.47
2022-09-28T12:15:42.263Z,972.45
2022-09-28T12:17:31.516Z,972.97
2022-09-28T12:18:31.396Z,972.56
2022-09-28T12:19:31.323Z,972.59
2022-09-28T12:20:31.249Z,972.58
2022-09-28T12:21:31.173Z,973.00
2022-09-28T12:22:31.098Z,973.01
2022-09-28T12:23:31.023Z,973.00
2022-09-28T12:24:30.948Z,972.93
2022-09-28T12:29:39.708Z,972.55
2022-09-28T12:30:39.664Z,972.47
2022-09-28T12:31:39.546Z,972.51
2022-09-28T12:32:39.484Z,972.48
2022-09-28T12:33:39.400Z,972.49
2022-09-28T12:34:39.329Z,972.42
2022-09-28T12:35:39.255Z,972.40
2022-09-28T12:36:39.181Z,972.44
2022-09-28T12:37:39.107Z,972.41
2022-09-28T12:38:39.033Z,972.43
2022-09-28T12:39:56.498Z,972.41
2022-09-28T12:40:38.951Z,972.41
2022-09-28T12:41:38.813Z,972.40
2022-09-28T12:42:38.737Z,972.55
2022-09-28T12:43:38.665Z,972.82
2022-09-28T12:44:38.590Z,972.82
2022-09-28T12:45:47.885Z,972.87
2022-09-28T12:46:38.533Z,972.84
2022-09-28T12:47:38.367Z,972.51
2022-09-28T12:48:38.495Z,972.80
2022-09-28T12:50:46.454Z,972.86
2022-09-28T12:51:25.640Z,972.87
2022-09-28T12:52:26.173Z,972.81
2022-09-28T12:53:25.495Z,972.73
2022-09-28T12:54:25.459Z,972.40